sensor_id;sensor_type;location;lat;lon;timestamp;pressure;altitude;pressure_sealevel;temperature;humidity
77631;BME280;66798;47.370;8.552;2023-08-07T03:37:35;96919.31;;;12.88;70.90
77631;BME280;66798;47.370;8.552;2023-08-07T03:40:00;96913.22;;;12.93;70.73
77631;BME280;66798;47.370;8.552;2023-08-07T03:42:26;96910.13;;;12.81;70.44
77631;BME280;66798;47.370;8.552;2023-08-07T03:44:51;96914.00;;;12.93;70.00
77631;BME280;66798;47.370;8.552;2023-08-07T03:47:16;96916.41;;;12.90;71.04
77631;BME280;66798;47.370;8.552;2023-08-07T03:49:42;96911.88;;;12.95;69.98
77631;BME280;66798;47.370;8.552;2023-08-07T03:52:07;96909.03;;;12.87;70.44
77631;BME280;66798;47.370;8.552;2023-08-07T03:54:33;96909.09;;;12.77;70.74
77631;BME280;66798;47.370;8.552;2023-08-07T03:56:58;96911.97;;;12.80;70.75
77631;BME280;66798;47.370;8.552;2023-08-07T03:59:24;96916.78;;;12.73;70.24
77631;BME280;66798;47.370;8.552;2023-08-07T04:01:49;96915.44;;;12.75;70.55
77631;BME280;66798;47.370;8.552;2023-08-07T04:04:15;96910.69;;;12.78;71.01
77631;BME280;66798;47.370;8.552;2023-08-07T04:06:40;96902.28;;;12.65;70.69
77631;BME280;66798;47.370;8.552;2023-08-07T04:09:05;96907.56;;;12.65;70.73
77631;BME280;66798;47.370;8.552;2023-08-07T04:11:31;96916.25;;;12.71;70.61
77631;BME280;66798;47.370;8.552;2023-08-07T04:13:58;96919.41;;;12.68;70.47
77631;BME280;66798;47.370;8.552;2023-08-07T04:16:24;96924.19;;;12.66;70.17
77631;BME280;66798;47.370;8.552;2023-08-07T04:18:51;96928.66;;;12.70;70.72
77631;BME280;66798;47.370;8.552;2023-08-07T04:21:16;96927.34;;;12.63;70.89
77631;BME280;66798;47.370;8.552;2023-08-07T06:10:22;96975.03;;;14.29;64.89
77631;BME280;66798;47.370;8.552;2023-08-07T06:12:48;96971.81;;;14.32;66.43
77631;BME280;66798;47.370;8.552;2023-08-07T06:15:13;96970.44;;;14.40;65.79
77631;BME280;66798;47.370;8.552;2023-08-07T06:17:39;96974.13;;;14.15;65.19
77631;BME280;66798;47.370;8.552;2023-08-07T06:20:08;96968.06;;;14.38;67.08
77631;BME280;66798;47.370;8.552;2023-08-07T06:22:35;96972.19;;;14.26;65.02
77631;BME280;66798;47.370;8.552;2023-08-07T06:25:00;96977.69;;;14.29;65.68
77631;BME280;66798;47.370;8.552;2023-08-07T06:27:26;96977.34;;;14.36;65.71
77631;BME280;66798;47.370;8.552;2023-08-07T06:29:51;96976.28;;;14.37;65.61
77631;BME280;66798;47.370;8.552;2023-08-07T06:32:17;96973.88;;;14.40;65.21
77631;BME280;66798;47.370;8.552;2023-08-07T06:34:44;96978.91;;;14.37;66.19
77631;BME280;66798;47.370;8.552;2023-08-07T06:37:11;96976.63;;;14.30;65.39
77631;BME280;66798;47.370;8.552;2023-08-07T06:39:37;96977.28;;;14.41;66.31
77631;BME280;66798;47.370;8.552;2023-08-07T06:42:02;96983.81;;;14.49;65.32
77631;BME280;66798;47.370;8.552;2023-08-07T06:44:28;96990.78;;;14.39;66.13
77631;BME280;66798;47.370;8.552;2023-08-07T06:46:53;96988.38;;;14.43;65.18
77631;BME280;66798;47.370;8.552;2023-08-07T06:49:19;96985.94;;;14.47;66.28
77631;BME280;66798;47.370;8.552;2023-08-07T06:51:44;96988.84;;;14.50;63.98
77631;BME280;66798;47.370;8.552;2023-08-07T06:54:09;96986.53;;;14.68;65.99
77631;BME280;66798;47.370;8.552;2023-08-07T06:56:35;96991.75;;;14.78;64.88
77631;BME280;66798;47.370;8.552;2023-08-07T06:59:02;97000.00;;;14.95;64.84
77631;BME280;66798;47.370;8.552;2023-08-07T07:01:28;96993.50;;;15.06;64.45
77631;BME280;66798;47.370;8.552;2023-08-07T07:03:54;96990.91;;;15.20;64.71
77631;BME280;66798;47.370;8.552;2023-08-07T07:06:19;96999.94;;;15.38;64.69
77631;BME280;66798;47.370;8.552;2023-08-07T07:08:46;96998.56;;;15.41;62.41
77631;BME280;66798;47.370;8.552;2023-08-07T07:11:11;96997.38;;;15.33;61.70
77631;BME280;66798;47.370;8.552;2023-08-07T07:13:37;97002.75;;;15.28;63.46
77631;BME280;66798;47.370;8.552;2023-08-07T07:16:03;97007.88;;;15.76;63.32
77631;BME280;66798;47.370;8.552;2023-08-07T07:18:30;97016.38;;;15.92;60.58
77631;BME280;66798;47.370;8.552;2023-08-07T07:21:05;97012.38;;;15.95;62.86
77631;BME280;66798;47.370;8.552;2023-08-07T07:23:38;97015.31;;;15.93;62.17
77631;BME280;66798;47.370;8.552;2023-08-07T07:26:04;97010.44;;;16.14;60.92
77631;BME280;66798;47.370;8.552;2023-08-07T07:28:29;97003.41;;;16.51;61.89
77631;BME280;66798;47.370;8.552;2023-08-07T07:30:55;97008.25;;;17.04;62.44
77631;BME280;66798;47.370;8.552;2023-08-07T07:33:20;97013.97;;;17.34;59.46
77631;BME280;66798;47.370;8.552;2023-08-07T07:35:46;97021.34;;;17.01;57.97
77631;BME280;66798;47.370;8.552;2023-08-07T07:38:11;97029.41;;;16.82;58.46
77631;BME280;66798;47.370;8.552;2023-08-07T07:40:37;97019.41;;;16.32;58.76
77631;BME280;66798;47.370;8.552;2023-08-07T07:43:03;97016.88;;;15.94;59.38
77631;BME280;66798;47.370;8.552;2023-08-07T07:45:28;97021.41;;;15.93;60.64
77631;BME280;66798;47.370;8.552;2023-08-07T07:47:55;97021.13;;;15.95;62.52
77631;BME280;66798;47.370;8.552;2023-08-07T07:50:20;97030.88;;;16.13;61.25
77631;BME280;66798;47.370;8.552;2023-08-07T07:52:46;97024.31;;;15.78;61.41
77631;BME280;66798;47.370;8.552;2023-08-07T07:55:11;97026.28;;;15.67;61.82
77631;BME280;66798;47.370;8.552;2023-08-07T07:57:38;97026.13;;;15.59;61.98
77631;BME280;66798;47.370;8.552;2023-08-07T08:00:04;97032.63;;;15.71;61.29
77631;BME280;66798;47.370;8.552;2023-08-07T08:02:39;97033.75;;;15.65;61.04
77631;BME280;66798;47.370;8.552;2023-08-07T08:05:06;97046.44;;;15.31;61.53
77631;BME280;66798;47.370;8.552;2023-08-07T08:07:32;97042.97;;;15.30;60.88
77631;BME280;66798;47.370;8.552;2023-08-07T08:10:00;97034.97;;;15.35;62.88
77631;BME280;66798;47.370;8.552;2023-08-07T08:12:25;97050.28;;;15.19;66.49
77631;BME280;66798;47.370;8.552;2023-08-07T08:14:51;97040.81;;;15.13;69.46
77631;BME280;66798;47.370;8.552;2023-08-07T08:17:16;97050.16;;;14.62;71.51
77631;BME280;66798;47.370;8.552;2023-08-07T08:19:42;97057.06;;;14.58;74.12
77631;BME280;66798;47.370;8.552;2023-08-07T08:22:07;97067.19;;;14.56;72.74
77631;BME280;66798;47.370;8.552;2023-08-07T08:24:33;97067.38;;;14.31;72.26
77631;BME280;66798;47.370;8.552;2023-08-07T08:26:58;97072.78;;;14.15;72.65
77631;BME280;66798;47.370;8.552;2023-08-07T08:29:24;97082.38;;;14.40;73.94
77631;BME280;66798;47.370;8.552;2023-08-07T08:31:49;97077.25;;;14.20;73.09
77631;BME280;66798;47.370;8.552;2023-08-07T08:34:18;97084.09;;;14.26;73.49
77631;BME280;66798;47.370;8.552;2023-08-07T08:36:43;97088.53;;;14.31;73.57
77631;BME280;66798;47.370;8.552;2023-08-07T08:39:09;97076.94;;;14.56;75.55
77631;BME280;66798;47.370;8.552;2023-08-07T08:41:34;97071.47;;;14.47;73.84
77631;BME280;66798;47.370;8.552;2023-08-07T08:44:01;97080.06;;;14.63;73.61
77631;BME280;66798;47.370;8.552;2023-08-07T08:46:29;97084.47;;;14.73;72.44
77631;BME280;66798;47.370;8.552;2023-08-07T08:48:57;97077.59;;;14.72;72.92
77631;BME280;66798;47.370;8.552;2023-08-07T08:51:25;97085.13;;;14.59;70.11
77631;BME280;66798;47.370;8.552;2023-08-07T08:53:54;97079.72;;;14.70;73.61
77631;BME280;66798;47.370;8.552;2023-08-07T08:56:22;97086.38;;;14.67;72.69
77631;BME280;66798;47.370;8.552;2023-08-07T08:58:50;97091.56;;;14.77;74.25
77631;BME280;66798;47.370;8.552;2023-08-07T09:01:17;97091.03;;;14.75;74.71
77631;BME280;66798;47.370;8.552;2023-08-07T09:03:44;97085.59;;;14.67;73.77
77631;BME280;66798;47.370;8.552;2023-08-07T09:06:12;97083.06;;;14.80;73.90
77631;BME280;66798;47.370;8.552;2023-08-07T09:08:42;97081.06;;;15.15;73.75
77631;BME280;66798;47.370;8.552;2023-08-07T09:11:10;97079.75;;;15.56;72.69
77631;BME280;66798;47.370;8.552;2023-08-07T09:13:37;97075.03;;;15.90;71.50
77631;BME280;66798;47.370;8.552;2023-08-07T09:16:07;97075.66;;;16.34;70.59
77631;BME280;66798;47.370;8.552;2023-08-07T09:18:34;97074.38;;;16.78;66.30
77631;BME280;66798;47.370;8.552;2023-08-07T09:21:00;97066.00;;;17.12;66.67
77631;BME280;66798;47.370;8.552;2023-08-07T09:23:26;97072.03;;;17.04;65.55
77631;BME280;66798;47.370;8.552;2023-08-07T09:26:02;97073.69;;;17.00;61.36
77631;BME280;66798;47.370;8.552;2023-08-07T09:28:30;97076.06;;;17.52;69.07
77631;BME280;66798;47.370;8.552;2023-08-07T09:30:56;97068.41;;;17.87;60.63
77631;BME280;66798;47.370;8.552;2023-08-07T09:33:25;97066.03;;;17.49;56.19
77631;BME280;66798;47.370;8.552;2023-08-07T09:35:52;97075.22;;;17.93;62.69
77631;BME280;66798;47.370;8.552;2023-08-07T09:38:17;97077.50;;;17.86;56.23
77631;BME280;66798;47.370;8.552;2023-08-07T09:40:43;97072.03;;;18.13;61.04
77631;BME280;66798;47.370;8.552;2023-08-07T09:43:08;97077.97;;;18.64;66.15
77631;BME280;66798;47.370;8.552;2023-08-07T09:45:35;97068.69;;;18.84;60.33
77631;BME280;66798;47.370;8.552;2023-08-07T09:48:06;97074.44;;;19.17;59.43
77631;BME280;66798;47.370;8.552;2023-08-07T09:50:32;97061.28;;;19.38;60.98
77631;BME280;66798;47.370;8.552;2023-08-07T09:52:58;97066.28;;;19.22;55.30
77631;BME280;66798;47.370;8.552;2023-08-07T09:55:24;97063.16;;;19.64;54.52
77631;BME280;66798;47.370;8.552;2023-08-07T12:07:47;97063.75;;;18.15;48.79
77631;BME280;66798;47.370;8.552;2023-08-07T12:10:13;97062.78;;;18.11;49.44
77631;BME280;66798;47.370;8.552;2023-08-07T12:12:39;97063.16;;;18.18;48.72
77631;BME280;66798;47.370;8.552;2023-08-07T12:15:08;97066.19;;;18.02;48.29
77631;BME280;66798;47.370;8.552;2023-08-07T12:17:35;97064.25;;;18.17;47.70
77631;BME280;66798;47.370;8.552;2023-08-07T12:20:04;97058.19;;;18.25;48.78
77631;BME280;66798;47.370;8.552;2023-08-07T12:22:31;97057.75;;;18.32;49.45
77631;BME280;66798;47.370;8.552;2023-08-07T12:24:57;97067.13;;;18.29;48.25
77631;BME280;66798;47.370;8.552;2023-08-07T12:27:22;97069.88;;;18.15;49.69
77631;BME280;66798;47.370;8.552;2023-08-07T12:29:48;97062.44;;;18.26;49.69
77631;BME280;66798;47.370;8.552;2023-08-07T12:32:13;97066.50;;;18.23;48.39
77631;BME280;66798;47.370;8.552;2023-08-07T12:34:39;97071.47;;;18.48;49.77
77631;BME280;66798;47.370;8.552;2023-08-07T12:37:06;97058.09;;;18.70;49.49
77631;BME280;66798;47.370;8.552;2023-08-07T12:39:31;97064.75;;;18.81;50.01
77631;BME280;66798;47.370;8.552;2023-08-07T14:29:47;97106.13;;;18.02;71.31
77631;BME280;66798;47.370;8.552;2023-08-07T14:32:13;97117.88;;;18.24;68.79
77631;BME280;66798;47.370;8.552;2023-08-07T14:34:38;97106.97;;;18.34;66.79
77631;BME280;66798;47.370;8.552;2023-08-07T14:37:04;97122.13;;;17.75;63.41
77631;BME280;66798;47.370;8.552;2023-08-07T14:39:30;97125.41;;;17.86;62.72
77631;BME280;66798;47.370;8.552;2023-08-07T14:41:56;97120.00;;;17.99;62.57
77631;BME280;66798;47.370;8.552;2023-08-07T14:44:21;97137.16;;;18.07;62.31
77631;BME280;66798;47.370;8.552;2023-08-07T14:46:47;97127.22;;;17.99;60.67
77631;BME280;66798;47.370;8.552;2023-08-07T14:49:12;97136.22;;;17.75;58.90
77631;BME280;66798;47.370;8.552;2023-08-07T14:51:37;97134.66;;;17.74;59.64
77631;BME280;66798;47.370;8.552;2023-08-07T14:54:03;97124.56;;;17.99;61.40
77631;BME280;66798;47.370;8.552;2023-08-07T14:56:28;97129.47;;;18.28;60.46
77631;BME280;66798;47.370;8.552;2023-08-07T14:58:54;97123.31;;;18.19;59.19
77631;BME280;66798;47.370;8.552;2023-08-07T15:01:19;97113.13;;;18.21;60.27
77631;BME280;66798;47.370;8.552;2023-08-07T15:03:45;97116.28;;;18.23;58.08
77631;BME280;66798;47.370;8.552;2023-08-07T15:06:11;97113.31;;;18.24;55.56
77631;BME280;66798;47.370;8.552;2023-08-07T15:08:38;97109.97;;;17.96;56.82
77631;BME280;66798;47.370;8.552;2023-08-07T15:11:03;97109.69;;;17.98;56.08
77631;BME280;66798;47.370;8.552;2023-08-07T15:13:28;97111.13;;;17.81;54.94
77631;BME280;66798;47.370;8.552;2023-08-07T15:15:54;97110.38;;;17.90;56.63
77631;BME280;66798;47.370;8.552;2023-08-07T15:18:20;97124.41;;;17.68;54.82
77631;BME280;66798;47.370;8.552;2023-08-07T15:20:49;97122.13;;;17.75;56.69
77631;BME280;66798;47.370;8.552;2023-08-07T15:23:14;97113.53;;;17.78;55.86
77631;BME280;66798;47.370;8.552;2023-08-07T15:25:40;97117.72;;;17.84;53.93
77631;BME280;66798;47.370;8.552;2023-08-07T15:28:06;97112.88;;;17.86;55.25
77631;BME280;66798;47.370;8.552;2023-08-07T15:30:32;97112.53;;;18.01;55.25
77631;BME280;66798;47.370;8.552;2023-08-07T15:32:57;97117.91;;;18.10;53.64
77631;BME280;66798;47.370;8.552;2023-08-07T15:35:23;97110.09;;;17.91;53.96
77631;BME280;66798;47.370;8.552;2023-08-07T15:37:48;97110.88;;;17.92;52.78
77631;BME280;66798;47.370;8.552;2023-08-07T15:40:14;97103.75;;;18.01;54.83
77631;BME280;66798;47.370;8.552;2023-08-07T15:42:39;97106.63;;;18.04;55.75
77631;BME280;66798;47.370;8.552;2023-08-07T15:45:11;97109.16;;;18.10;53.23
77631;BME280;66798;47.370;8.552;2023-08-07T15:47:37;97109.44;;;18.08;54.48
77631;BME280;66798;47.370;8.552;2023-08-07T15:50:02;97110.19;;;18.00;56.49
77631;BME280;66798;47.370;8.552;2023-08-07T15:52:29;97112.34;;;17.98;55.29
77631;BME280;66798;47.370;8.552;2023-08-07T15:54:55;97111.13;;;18.04;55.45
77631;BME280;66798;47.370;8.552;2023-08-07T15:57:20;97109.75;;;18.29;55.82
77631;BME280;66798;47.370;8.552;2023-08-07T15:59:46;97109.00;;;18.37;54.51
77631;BME280;66798;47.370;8.552;2023-08-07T16:02:11;97115.78;;;18.43;53.39
77631;BME280;66798;47.370;8.552;2023-08-07T16:04:37;97105.44;;;18.42;54.30
77631;BME280;66798;47.370;8.552;2023-08-07T16:07:02;97106.59;;;18.50;54.21
77631;BME280;66798;47.370;8.552;2023-08-07T16:09:29;97108.44;;;18.49;54.22
77631;BME280;66798;47.370;8.552;2023-08-07T16:11:55;97107.16;;;18.38;53.82
77631;BME280;66798;47.370;8.552;2023-08-07T16:14:21;97105.88;;;18.35;53.08
77631;BME280;66798;47.370;8.552;2023-08-07T16:16:49;97108.16;;;18.51;53.72
77631;BME280;66798;47.370;8.552;2023-08-07T16:19:15;97104.78;;;18.36;52.79
77631;BME280;66798;47.370;8.552;2023-08-07T16:21:40;97102.47;;;18.21;53.86
77631;BME280;66798;47.370;8.552;2023-08-07T16:24:05;97097.88;;;18.13;53.42
77631;BME280;66798;47.370;8.552;2023-08-07T16:26:31;97101.94;;;18.10;52.54
77631;BME280;66798;47.370;8.552;2023-08-07T16:28:56;97111.97;;;17.91;53.35
77631;BME280;66798;47.370;8.552;2023-08-07T16:31:22;97117.28;;;17.54;53.84
77631;BME280;66798;47.370;8.552;2023-08-07T16:33:48;97107.00;;;17.61;55.97
77631;BME280;66798;47.370;8.552;2023-08-07T16:36:13;97105.53;;;17.55;57.25
77631;BME280;66798;47.370;8.552;2023-08-07T16:38:38;97105.69;;;17.73;55.71
77631;BME280;66798;47.370;8.552;2023-08-07T16:41:04;97110.84;;;17.83;56.60
77631;BME280;66798;47.370;8.552;2023-08-07T16:43:29;97105.09;;;17.76;57.17
77631;BME280;66798;47.370;8.552;2023-08-07T16:45:55;97109.56;;;17.80;57.43
77631;BME280;66798;47.370;8.552;2023-08-07T16:48:20;97098.59;;;17.68;56.50
77631;BME280;66798;47.370;8.552;2023-08-07T16:50:46;97100.34;;;17.73;55.64
77631;BME280;66798;47.370;8.552;2023-08-07T16:53:11;97106.63;;;17.54;56.48
77631;BME280;66798;47.370;8.552;2023-08-07T16:55:37;97104.94;;;17.45;54.73
77631;BME280;66798;47.370;8.552;2023-08-07T16:58:02;97100.06;;;17.24;53.91
77631;BME280;66798;47.370;8.552;2023-08-07T17:00:28;97106.84;;;17.30;54.32
77631;BME280;66798;47.370;8.552;2023-08-07T17:02:54;97103.72;;;17.28;52.44
77631;BME280;66798;47.370;8.552;2023-08-07T17:05:22;97102.06;;;17.18;52.60
77631;BME280;66798;47.370;8.552;2023-08-07T17:07:48;97107.66;;;17.03;53.62
77631;BME280;66798;47.370;8.552;2023-08-07T17:10:14;97111.31;;;17.07;53.26
77631;BME280;66798;47.370;8.552;2023-08-07T17:12:42;97103.63;;;17.06;53.69
77631;BME280;66798;47.370;8.552;2023-08-07T17:15:08;97104.09;;;17.22;53.61
77631;BME280;66798;47.370;8.552;2023-08-07T17:17:35;97115.13;;;17.43;54.33
77631;BME280;66798;47.370;8.552;2023-08-07T17:20:01;97109.28;;;17.54;55.43
77631;BME280;66798;47.370;8.552;2023-08-07T17:22:26;97105.13;;;17.62;55.09
77631;BME280;66798;47.370;8.552;2023-08-07T17:24:52;97105.13;;;17.62;55.97
77631;BME280;66798;47.370;8.552;2023-08-07T17:27:18;97111.41;;;17.66;55.75
77631;BME280;66798;47.370;8.552;2023-08-07T17:29:43;97114.28;;;17.70;56.81
77631;BME280;66798;47.370;8.552;2023-08-07T17:32:09;97116.16;;;17.69;56.20
77631;BME280;66798;47.370;8.552;2023-08-07T17:34:34;97120.78;;;17.63;55.81
77631;BME280;66798;47.370;8.552;2023-08-07T17:37:00;97120.31;;;17.61;55.66
77631;BME280;66798;47.370;8.552;2023-08-07T17:39:25;97116.44;;;17.68;56.84
77631;BME280;66798;47.370;8.552;2023-08-07T17:41:51;97118.13;;;17.63;57.20
77631;BME280;66798;47.370;8.552;2023-08-07T17:44:16;97115.00;;;17.61;56.49
77631;BME280;66798;47.370;8.552;2023-08-07T17:46:43;97119.81;;;17.59;57.11
77631;BME280;66798;47.370;8.552;2023-08-07T17:49:08;97120.13;;;17.44;56.02
77631;BME280;66798;47.370;8.552;2023-08-07T17:51:34;97118.34;;;17.39;57.75
77631;BME280;66798;47.370;8.552;2023-08-07T17:53:59;97119.34;;;17.44;57.41
77631;BME280;66798;47.370;8.552;2023-08-07T17:56:25;97110.09;;;17.27;58.48
77631;BME280;66798;47.370;8.552;2023-08-07T17:58:50;97108.53;;;17.26;59.31
77631;BME280;66798;47.370;8.552;2023-08-07T18:01:17;97106.84;;;17.30;59.23
77631;BME280;66798;47.370;8.552;2023-08-07T18:03:43;97111.88;;;17.32;58.02
77631;BME280;66798;47.370;8.552;2023-08-07T18:06:11;97106.75;;;17.35;58.67
77631;BME280;66798;47.370;8.552;2023-08-07T18:08:36;97115.81;;;17.34;58.62
77631;BME280;66798;47.370;8.552;2023-08-07T18:11:02;97110.50;;;17.34;58.61
77631;BME280;66798;47.370;8.552;2023-08-07T18:13:28;97114.25;;;17.33;60.14
77631;BME280;66798;47.370;8.552;2023-08-07T18:15:53;97107.34;;;17.32;58.69
77631;BME280;66798;47.370;8.552;2023-08-07T18:18:19;97104.59;;;17.24;58.37
77631;BME280;66798;47.370;8.552;2023-08-07T18:20:44;97110.03;;;17.18;57.87
77631;BME280;66798;47.370;8.552;2023-08-07T18:23:10;97114.53;;;17.18;59.00
77631;BME280;66798;47.370;8.552;2023-08-07T18:25:36;97114.63;;;17.13;58.36
77631;BME280;66798;47.370;8.552;2023-08-07T18:28:01;97113.97;;;17.07;59.14
77631;BME280;66798;47.370;8.552;2023-08-07T18:30:27;97110.41;;;16.98;59.00
77631;BME280;66798;47.370;8.552;2023-08-07T18:32:52;97110.19;;;16.94;61.04
77631;BME280;66798;47.370;8.552;2023-08-07T18:35:17;97111.41;;;16.88;60.15
77631;BME280;66798;47.370;8.552;2023-08-07T18:37:43;97109.72;;;16.79;59.52
77631;BME280;66798;47.370;8.552;2023-08-07T18:40:09;97117.25;;;16.71;60.72
77631;BME280;66798;47.370;8.552;2023-08-07T18:42:35;97116.47;;;16.71;61.36
77631;BME280;66798;47.370;8.552;2023-08-07T18:45:01;97120.84;;;16.48;61.83
77631;BME280;66798;47.370;8.552;2023-08-07T18:47:26;97129.19;;;16.41;61.29
77631;BME280;66798;47.370;8.552;2023-08-07T18:49:52;97119.94;;;16.39;61.98
77631;BME280;66798;47.370;8.552;2023-08-07T18:52:17;97114.72;;;16.33;61.52
77631;BME280;66798;47.370;8.552;2023-08-07T18:54:42;97121.66;;;16.29;61.86
77631;BME280;66798;47.370;8.552;2023-08-07T18:57:08;97109.75;;;16.27;62.86
77631;BME280;66798;47.370;8.552;2023-08-07T18:59:33;97119.69;;;16.21;63.18
77631;BME280;66798;47.370;8.552;2023-08-07T19:02:00;97123.56;;;16.10;62.69
77631;BME280;66798;47.370;8.552;2023-08-07T19:04:25;97120.69;;;16.06;61.59
77631;BME280;66798;47.370;8.552;2023-08-07T19:06:50;97130.81;;;16.04;63.42
77631;BME280;66798;47.370;8.552;2023-08-07T19:09:16;97130.09;;;15.99;62.45
77631;BME280;66798;47.370;8.552;2023-08-07T19:11:42;97125.09;;;15.97;64.19
77631;BME280;66798;47.370;8.552;2023-08-07T19:14:07;97122.81;;;15.90;66.64
77631;BME280;66798;47.370;8.552;2023-08-07T19:16:33;97128.19;;;15.85;66.94
77631;BME280;66798;47.370;8.552;2023-08-07T19:18:58;97129.91;;;15.76;64.09
77631;BME280;66798;47.370;8.552;2023-08-07T19:21:24;97134.22;;;15.67;66.84
77631;BME280;66798;47.370;8.552;2023-08-07T19:23:50;97131.41;;;15.58;65.81
77631;BME280;66798;47.370;8.552;2023-08-07T19:26:15;97132.00;;;15.55;68.16
77631;BME280;66798;47.370;8.552;2023-08-07T19:28:41;97133.34;;;15.53;67.14
77631;BME280;66798;47.370;8.552;2023-08-07T19:31:06;97138.66;;;15.53;65.45
77631;BME280;66798;47.370;8.552;2023-08-07T19:33:33;97140.81;;;15.50;65.58
77631;BME280;66798;47.370;8.552;2023-08-07T19:35:58;97144.03;;;15.47;62.63
77631;BME280;66798;47.370;8.552;2023-08-07T19:38:24;97144.38;;;15.41;64.49
77631;BME280;66798;47.370;8.552;2023-08-07T19:40:49;97135.06;;;15.43;67.83
77631;BME280;66798;47.370;8.552;2023-08-07T19:43:16;97130.59;;;15.39;63.28
77631;BME280;66798;47.370;8.552;2023-08-07T19:45:43;97134.63;;;15.36;66.95
77631;BME280;66798;47.370;8.552;2023-08-07T19:48:08;97118.94;;;15.40;62.57
77631;BME280;66798;47.370;8.552;2023-08-07T19:50:34;97126.66;;;15.36;62.70
77631;BME280;66798;47.370;8.552;2023-08-07T19:52:59;97131.97;;;15.36;63.25
77631;BME280;66798;47.370;8.552;2023-08-07T19:55:26;97133.16;;;15.25;62.26
77631;BME280;66798;47.370;8.552;2023-08-07T19:57:51;97126.28;;;15.24;63.97
77631;BME280;66798;47.370;8.552;2023-08-07T20:00:17;97136.03;;;15.28;63.13
77631;BME280;66798;47.370;8.552;2023-08-07T20:02:43;97134.00;;;15.20;65.50
77631;BME280;66798;47.370;8.552;2023-08-07T20:05:08;97126.50;;;15.03;64.84
77631;BME280;66798;47.370;8.552;2023-08-07T20:07:34;97130.97;;;15.08;63.44
77631;BME280;66798;47.370;8.552;2023-08-07T20:09:59;97130.19;;;15.07;65.42
77631;BME280;66798;47.370;8.552;2023-08-07T20:12:25;97123.91;;;14.98;64.23
77631;BME280;66798;47.370;8.552;2023-08-07T20:14:50;97120.88;;;14.86;64.03
77631;BME280;66798;47.370;8.552;2023-08-07T20:17:16;97130.69;;;14.85;64.82
77631;BME280;66798;47.370;8.552;2023-08-07T20:19:41;97125.38;;;14.85;66.10
77631;BME280;66798;47.370;8.552;2023-08-07T20:22:07;97127.59;;;14.78;66.95
77631;BME280;66798;47.370;8.552;2023-08-07T20:24:32;97125.19;;;14.77;66.02
77631;BME280;66798;47.370;8.552;2023-08-07T20:26:58;97130.31;;;14.68;64.42
77631;BME280;66798;47.370;8.552;2023-08-07T20:29:25;97128.78;;;14.62;69.92
77631;BME280;66798;47.370;8.552;2023-08-07T20:31:51;97117.47;;;14.56;66.94
77631;BME280;66798;47.370;8.552;2023-08-07T20:34:17;97120.22;;;14.41;65.61
77631;BME280;66798;47.370;8.552;2023-08-07T20:36:42;97119.22;;;14.32;66.34
77631;BME280;66798;47.370;8.552;2023-08-07T20:39:09;97119.69;;;14.39;69.27
77631;BME280;66798;47.370;8.552;2023-08-07T20:41:35;97114.22;;;14.30;68.22
77631;BME280;66798;47.370;8.552;2023-08-07T20:44:01;97112.88;;;14.33;70.47
77631;BME280;66798;47.370;8.552;2023-08-07T20:46:26;97105.72;;;14.33;67.88
77631;BME280;66798;47.370;8.552;2023-08-07T20:48:52;97105.72;;;14.33;65.99
77631;BME280;66798;47.370;8.552;2023-08-07T20:51:18;97104.94;;;14.33;71.96
77631;BME280;66798;47.370;8.552;2023-08-07T20:53:44;97110.25;;;14.28;71.15
